Time;durP1;ratioP1;P1;durP2;ratioP2;P2;SDS_P1;SDS_P2;PMS_P1;PMS_P2;Temp;Humidity;BMP_temperature;BMP_pressure;BME280_temperature;BME280_humidity;BME280_pressure;Samples;Min_cycle;Max_cycle;Signal;HPM_P1;HPM_P2
2022/04/30 00:02:06;;;;;;;14.50;7.55;;;;;;;;;;4961368;28;20035;-94
2022/04/30 00:04:34;;;;;;;14.77;7.63;;;;;;;;;;4962061;28;20038;-95
2022/04/30 00:07:00;;;;;;;11.90;7.50;;;;;;;;;;4961109;28;20026;-94
2022/04/30 00:09:28;;;;;;;16.42;8.07;;;;;;;;;;4960949;28;20138;-95
2022/04/30 00:11:54;;;;;;;15.60;8.05;;;;;;;;;;4961180;28;20483;-94
2022/04/30 00:14:21;;;;;;;11.88;7.60;;;;;;;;;;4960916;28;20487;-94
2022/04/30 00:16:47;;;;;;;10.82;7.00;;;;;;;;;;4961019;28;20065;-94
2022/04/30 00:19:13;;;;;;;13.73;7.60;;;;;;;;;;4961154;28;20113;-95
2022/04/30 00:21:39;;;;;;;11.30;6.70;;;;;;;;;;4961180;28;20083;-94
2022/04/30 00:24:06;;;;;;;12.43;7.22;;;;;;;;;;4961010;28;20113;-94
2022/04/30 00:26:32;;;;;;;11.00;7.63;;;;;;;;;;4960549;28;20030;-94
2022/04/30 00:28:58;;;;;;;11.93;8.48;;;;;;;;;;4961239;28;20030;-94
2022/04/30 00:31:26;;;;;;;11.07;7.00;;;;;;;;;;4960561;28;20037;-93
2022/04/30 00:33:52;;;;;;;10.80;7.00;;;;;;;;;;4960635;28;20029;-94
2022/04/30 00:36:18;;;;;;;12.75;7.35;;;;;;;;;;4960728;28;20023;-94
2022/04/30 00:38:44;;;;;;;15.02;7.80;;;;;;;;;;4960425;28;20515;-94
2022/04/30 00:41:11;;;;;;;14.60;8.07;;;;;;;;;;4960981;28;20133;-95
2022/04/30 00:43:47;;;;;;;15.35;8.82;;;;;;;;;;4960678;28;20082;-94
2022/04/30 00:46:13;;;;;;;12.77;7.93;;;;;;;;;;4961160;28;20035;-92
2022/04/30 00:48:40;;;;;;;14.25;8.50;;;;;;;;;;4960279;28;20023;-94
2022/04/30 00:51:09;;;;;;;16.05;9.23;;;;;;;;;;4959719;28;20023;-94
2022/04/30 00:53:36;;;;;;;17.23;8.80;;;;;;;;;;4959929;28;20109;-93
2022/04/30 00:56:03;;;;;;;15.93;7.85;;;;;;;;;;4960376;28;20071;-93
2022/04/30 00:58:31;;;;;;;8.98;6.97;;;;;;;;;;4960199;28;20031;-94
2022/04/30 01:00:59;;;;;;;18.13;7.90;;;;;;;;;;4960428;28;20027;-93
2022/04/30 01:03:25;;;;;;;12.02;6.90;;;;;;;;;;4960068;28;20491;-93
2022/04/30 01:05:52;;;;;;;12.07;6.70;;;;;;;;;;4959987;28;20057;-94
2022/04/30 01:08:19;;;;;;;9.05;6.00;;;;;;;;;;4959879;28;20031;-93
2022/04/30 01:10:45;;;;;;;7.35;5.40;;;;;;;;;;4960063;28;20487;-94
2022/04/30 01:13:12;;;;;;;11.25;5.28;;;;;;;;;;4960105;28;20062;-93
2022/04/30 01:15:39;;;;;;;7.47;4.60;;;;;;;;;;4959930;28;20086;-95
2022/04/30 01:18:07;;;;;;;7.30;4.63;;;;;;;;;;4959853;28;20023;-95
2022/04/30 01:20:35;;;;;;;10.48;5.10;;;;;;;;;;4959752;28;20034;-94
2022/04/30 01:23:02;;;;;;;7.03;4.60;;;;;;;;;;4960045;28;20058;-94
2022/04/30 01:25:31;;;;;;;7.13;5.03;;;;;;;;;;4959864;28;20069;-94
2022/04/30 01:28:01;;;;;;;7.22;4.72;;;;;;;;;;4960287;28;20472;-94
2022/04/30 01:30:28;;;;;;;7.78;4.28;;;;;;;;;;4959608;28;20119;-94
2022/04/30 01:38:23;;;;;;;7.68;4.78;;;;;;;;;;4976915;28;20053;-95
2022/04/30 01:40:50;;;;;;;8.68;5.22;;;;;;;;;;4959482;28;20122;-96
2022/04/30 01:43:17;;;;;;;7.05;4.82;;;;;;;;;;4959456;28;20026;-94
2022/04/30 01:45:44;;;;;;;8.27;4.63;;;;;;;;;;4959407;28;20034;-95
2022/04/30 01:48:14;;;;;;;8.13;4.90;;;;;;;;;;4959890;28;20027;-94
2022/04/30 01:50:44;;;;;;;5.80;4.43;;;;;;;;;;4959324;28;20022;-94
2022/04/30 01:53:10;;;;;;;6.35;4.47;;;;;;;;;;4959187;28;20114;-94
2022/04/30 01:55:37;;;;;;;4.28;3.70;;;;;;;;;;4959446;28;20041;-94
2022/04/30 01:58:03;;;;;;;4.72;3.63;;;;;;;;;;4959085;28;20030;-93
2022/04/30 02:00:30;;;;;;;6.57;3.97;;;;;;;;;;4959054;28;20023;-93
2022/04/30 02:03:00;;;;;;;6.13;4.00;;;;;;;;;;4959561;28;20387;-93
2022/04/30 02:05:26;;;;;;;4.72;3.88;;;;;;;;;;4959953;28;20027;-93
2022/04/30 02:07:53;;;;;;;4.65;4.10;;;;;;;;;;4959762;28;20034;-93
2022/04/30 02:10:20;;;;;;;5.25;3.90;;;;;;;;;;4978185;28;20042;-93
2022/04/30 02:12:48;;;;;;;7.63;4.03;;;;;;;;;;4978309;28;20040;-94
2022/04/30 02:15:14;;;;;;;6.93;4.10;;;;;;;;;;4978176;28;20035;-93
2022/04/30 02:17:41;;;;;;;5.95;4.18;;;;;;;;;;4977993;28;20442;-93
2022/04/30 02:22:54;;;;;;;7.30;3.78;;;;;;;;;;4995594;28;20382;-93
2022/04/30 02:25:21;;;;;;;4.20;3.80;;;;;;;;;;4977918;28;20033;-93
2022/04/30 02:27:52;;;;;;;5.38;3.80;;;;;;;;;;4978282;28;20032;-94
2022/04/30 02:30:19;;;;;;;6.13;4.20;;;;;;;;;;4977969;28;20027;-94
2022/04/30 02:32:50;;;;;;;6.10;3.78;;;;;;;;;;4978138;28;20027;-94
2022/04/30 02:35:23;;;;;;;10.15;4.45;;;;;;;;;;4978073;28;20030;-93
2022/04/30 02:37:52;;;;;;;6.97;4.43;;;;;;;;;;4978001;28;20030;-93
2022/04/30 02:40:19;;;;;;;7.07;4.22;;;;;;;;;;4977863;28;20471;-93
2022/04/30 02:42:45;;;;;;;5.82;4.05;;;;;;;;;;4977827;28;20026;-93
2022/04/30 02:45:13;;;;;;;7.50;4.53;;;;;;;;;;4978043;28;20117;-94
2022/04/30 02:47:40;;;;;;;6.78;4.60;;;;;;;;;;4977813;28;20018;-94
2022/04/30 02:50:07;;;;;;;8.13;4.63;;;;;;;;;;4977989;28;20022;-94
2022/04/30 02:52:34;;;;;;;5.57;4.80;;;;;;;;;;4977739;28;20607;-94
2022/04/30 02:55:00;;;;;;;5.95;4.20;;;;;;;;;;4977863;28;20069;-94
2022/04/30 02:57:27;;;;;;;6.35;4.07;;;;;;;;;;4977662;28;20026;-93
2022/04/30 02:59:53;;;;;;;5.50;4.13;;;;;;;;;;4977765;28;20543;-94
2022/04/30 03:02:20;;;;;;;7.68;4.10;;;;;;;;;;4977655;28;20554;-94
2022/04/30 03:04:47;;;;;;;6.38;3.70;;;;;;;;;;4977502;28;20061;-93
2022/04/30 03:07:13;;;;;;;3.90;3.50;;;;;;;;;;4977438;28;20117;-94
2022/04/30 03:09:39;;;;;;;7.32;4.00;;;;;;;;;;4963331;28;20061;-93
2022/04/30 03:12:08;;;;;;;5.38;3.90;;;;;;;;;;4958402;28;20046;-93
2022/04/30 03:14:35;;;;;;;4.50;3.65;;;;;;;;;;4959368;28;20531;-93
2022/04/30 03:22:32;;;;;;;4.15;3.50;;;;;;;;;;4979398;28;20380;-94
2022/04/30 03:24:58;;;;;;;7.07;4.65;;;;;;;;;;4961979;28;20028;-93
2022/04/30 03:27:24;;;;;;;5.35;4.13;;;;;;;;;;4961822;28;20574;-94
2022/04/30 03:29:51;;;;;;;6.95;4.40;;;;;;;;;;4961870;28;20394;-93
2022/04/30 03:32:19;;;;;;;4.80;3.72;;;;;;;;;;4961963;28;20050;-93
2022/04/30 03:34:46;;;;;;;5.85;3.90;;;;;;;;;;4961583;28;20038;-93
2022/04/30 03:37:13;;;;;;;5.97;4.13;;;;;;;;;;4961705;28;20033;-93
2022/04/30 03:39:39;;;;;;;7.47;4.05;;;;;;;;;;4961643;28;20479;-94
2022/04/30 03:42:05;;;;;;;5.93;4.05;;;;;;;;;;4961584;28;20471;-94
2022/04/30 03:44:32;;;;;;;4.32;3.22;;;;;;;;;;4961379;28;20034;-94
2022/04/30 03:46:58;;;;;;;6.13;3.75;;;;;;;;;;4961499;28;20050;-95
2022/04/30 03:49:24;;;;;;;6.30;3.88;;;;;;;;;;4961547;28;20031;-95
2022/04/30 03:51:50;;;;;;;4.47;3.75;;;;;;;;;;4961457;28;20026;-94
2022/04/30 03:54:17;;;;;;;5.50;4.07;;;;;;;;;;4961367;28;20059;-94
2022/04/30 03:56:43;;;;;;;4.50;3.58;;;;;;;;;;4961292;28;20118;-94
2022/04/30 03:59:09;;;;;;;7.15;4.40;;;;;;;;;;4961187;28;20480;-94
2022/04/30 04:01:35;;;;;;;6.25;3.50;;;;;;;;;;4961197;28;20034;-93
2022/04/30 04:04:01;;;;;;;5.57;4.07;;;;;;;;;;4961099;28;20035;-94
2022/04/30 04:06:28;;;;;;;5.00;3.65;;;;;;;;;;4961165;28;20034;-94
2022/04/30 04:08:55;;;;;;;5.68;3.63;;;;;;;;;;4960978;28;20511;-94
2022/04/30 04:11:23;;;;;;;4.90;3.50;;;;;;;;;;4961021;28;20019;-94
2022/04/30 04:19:22;;;;;;;4.50;3.20;;;;;;;;;;4978346;28;20045;-93
2022/04/30 04:21:48;;;;;;;4.75;3.60;;;;;;;;;;4960775;28;20030;-94
2022/04/30 04:27:01;;;;;;;5.85;3.47;;;;;;;;;;4978257;28;20608;-92
2022/04/30 04:29:27;;;;;;;5.53;3.10;;;;;;;;;;4960748;28;20022;-93
2022/04/30 04:31:53;;;;;;;4.32;3.47;;;;;;;;;;4960847;28;20114;-93
2022/04/30 04:34:19;;;;;;;3.88;3.13;;;;;;;;;;4966395;28;20055;-93
2022/04/30 04:36:45;;;;;;;5.32;3.35;;;;;;;;;;4960929;28;20091;-94
2022/04/30 04:39:13;;;;;;;3.40;2.97;;;;;;;;;;4961005;28;20109;-95
2022/04/30 04:41:39;;;;;;;4.45;3.47;;;;;;;;;;4962276;28;20027;-92
2022/04/30 04:44:05;;;;;;;6.80;4.07;;;;;;;;;;4960586;28;20030;-94
2022/04/30 04:46:32;;;;;;;4.95;3.67;;;;;;;;;;4960443;28;20038;-94
2022/04/30 04:48:59;;;;;;;6.95;4.07;;;;;;;;;;4960360;28;20026;-93
2022/04/30 04:51:25;;;;;;;4.43;3.30;;;;;;;;;;4960313;28;20023;-93
2022/04/30 04:53:51;;;;;;;12.38;4.07;;;;;;;;;;4960485;28;20023;-93
2022/04/30 04:56:17;;;;;;;7.65;4.10;;;;;;;;;;4960351;28;20033;-93
2022/04/30 04:58:43;;;;;;;7.25;4.45;;;;;;;;;;4960261;28;20034;-93
2022/04/30 05:01:09;;;;;;;16.13;5.13;;;;;;;;;;4960484;28;20023;-94
2022/04/30 05:03:35;;;;;;;6.80;4.25;;;;;;;;;;4960179;28;20026;-92
2022/04/30 05:06:01;;;;;;;6.10;4.30;;;;;;;;;;4960014;28;20029;-93
2022/04/30 05:08:28;;;;;;;5.88;4.50;;;;;;;;;;4959941;28;20054;-93
2022/04/30 05:10:54;;;;;;;13.82;5.07;;;;;;;;;;4960169;28;20023;-93
2022/04/30 05:13:20;;;;;;;7.43;4.93;;;;;;;;;;4960358;28;20035;-93
2022/04/30 05:15:46;;;;;;;5.35;4.25;;;;;;;;;;4960020;28;20026;-92
2022/04/30 05:18:12;;;;;;;11.02;6.13;;;;;;;;;;4959853;28;20031;-92
2022/04/30 05:20:39;;;;;;;8.60;5.30;;;;;;;;;;4959925;28;20059;-93
2022/04/30 05:23:05;;;;;;;8.68;5.07;;;;;;;;;;4959875;28;20045;-93
2022/04/30 05:25:32;;;;;;;10.85;6.07;;;;;;;;;;4959696;28;20054;-92
2022/04/30 05:27:58;;;;;;;12.93;6.95;;;;;;;;;;4959820;28;20023;-93
2022/04/30 05:30:24;;;;;;;9.95;6.47;;;;;;;;;;4959562;28;20023;-93
2022/04/30 05:32:51;;;;;;;11.32;6.53;;;;;;;;;;4959733;28;20375;-93
2022/04/30 05:35:18;;;;;;;8.55;6.32;;;;;;;;;;4959641;28;20127;-93
2022/04/30 05:37:44;;;;;;;13.23;6.85;;;;;;;;;;4959072;28;20571;-93
2022/04/30 05:40:10;;;;;;;15.18;7.97;;;;;;;;;;4959669;28;20033;-93
2022/04/30 05:42:36;;;;;;;10.32;6.85;;;;;;;;;;4959612;28;20080;-93
2022/04/30 05:45:03;;;;;;;15.15;8.55;;;;;;;;;;4959349;28;20113;-93
2022/04/30 05:47:29;;;;;;;9.63;6.80;;;;;;;;;;4959402;28;20033;-93
2022/04/30 05:49:55;;;;;;;10.77;6.65;;;;;;;;;;4959401;28;20411;-93
2022/04/30 05:52:21;;;;;;;14.38;8.48;;;;;;;;;;4959176;28;20023;-93
2022/04/30 05:54:48;;;;;;;9.85;7.93;;;;;;;;;;4959197;28;20031;-93
2022/04/30 05:57:14;;;;;;;10.77;6.22;;;;;;;;;;4959314;28;20364;-93
2022/04/30 05:59:40;;;;;;;8.00;6.57;;;;;;;;;;4959398;28;20026;-93
2022/04/30 06:02:06;;;;;;;9.85;6.13;;;;;;;;;;4959102;28;20023;-93
2022/04/30 06:04:32;;;;;;;12.25;6.93;;;;;;;;;;4959125;28;20026;-92
2022/04/30 06:06:58;;;;;;;13.40;8.20;;;;;;;;;;4959056;28;20023;-93
2022/04/30 06:09:25;;;;;;;17.38;9.30;;;;;;;;;;4958905;28;20055;-93
2022/04/30 06:11:51;;;;;;;17.80;9.77;;;;;;;;;;4958816;28;20038;-93
2022/04/30 06:14:17;;;;;;;28.83;12.93;;;;;;;;;;4959022;28;20046;-93
2022/04/30 06:16:44;;;;;;;36.17;15.38;;;;;;;;;;4974985;28;20061;-93
2022/04/30 06:19:10;;;;;;;37.03;17.13;;;;;;;;;;4974894;28;20109;-93
2022/04/30 06:21:36;;;;;;;37.00;17.52;;;;;;;;;;4974928;28;20037;-93
2022/04/30 06:24:02;;;;;;;58.67;21.40;;;;;;;;;;4974835;28;20033;-93
2022/04/30 06:26:28;;;;;;;57.00;22.00;;;;;;;;;;4974869;28;20479;-93
2022/04/30 06:28:55;;;;;;;48.75;20.52;;;;;;;;;;4974763;28;20027;-92
2022/04/30 06:31:22;;;;;;;51.70;19.30;;;;;;;;;;4974775;28;20023;-93
2022/04/30 06:33:52;;;;;;;65.47;19.27;;;;;;;;;;4974931;28;20109;-93
2022/04/30 06:36:18;;;;;;;53.65;18.60;;;;;;;;;;4974799;28;20384;-93
2022/04/30 06:38:44;;;;;;;56.15;19.15;;;;;;;;;;4974776;28;20025;-93
2022/04/30 06:41:10;;;;;;;43.53;17.67;;;;;;;;;;4974653;28;20027;-94
2022/04/30 06:43:36;;;;;;;50.17;19.50;;;;;;;;;;4975599;28;20027;-93
2022/04/30 06:46:04;;;;;;;47.95;18.80;;;;;;;;;;4974500;28;20034;-93
2022/04/30 06:48:31;;;;;;;44.33;18.42;;;;;;;;;;4974622;28;20483;-92
2022/04/30 06:50:57;;;;;;;45.38;19.02;;;;;;;;;;4973650;28;20022;-92
2022/04/30 06:59:09;;;;;;;49.35;20.08;;;;;;;;;;4975867;28;20146;-92
2022/04/30 07:01:43;;;;;;;38.95;18.75;;;;;;;;;;4974456;28;20060;-93
2022/04/30 07:04:10;;;;;;;40.65;18.90;;;;;;;;;;4974513;28;20102;-93
2022/04/30 07:06:37;;;;;;;36.20;19.40;;;;;;;;;;4974220;28;20031;-92
2022/04/30 07:09:05;;;;;;;30.80;19.27;;;;;;;;;;4983532;28;20053;-92
2022/04/30 07:11:31;;;;;;;29.27;15.90;;;;;;;;;;4993628;28;20028;-92
2022/04/30 07:13:58;;;;;;;24.02;14.32;;;;;;;;;;4993741;28;20030;-93
2022/04/30 07:16:24;;;;;;;31.65;17.02;;;;;;;;;;4993873;28;20034;-93
2022/04/30 07:18:50;;;;;;;29.35;17.80;;;;;;;;;;4993730;28;20041;-92
2022/04/30 07:21:17;;;;;;;25.92;14.18;;;;;;;;;;4993656;28;20446;-92
2022/04/30 07:23:43;;;;;;;23.05;13.13;;;;;;;;;;4993802;28;20026;-92
2022/04/30 07:26:09;;;;;;;25.33;14.13;;;;;;;;;;4994006;28;20390;-92
2022/04/30 07:28:36;;;;;;;18.70;12.13;;;;;;;;;;4993790;28;20113;-92
2022/04/30 07:31:03;;;;;;;16.83;11.20;;;;;;;;;;4993627;28;20022;-92
2022/04/30 07:33:30;;;;;;;22.85;13.05;;;;;;;;;;4994438;28;20026;-92
2022/04/30 07:35:56;;;;;;;28.85;13.70;;;;;;;;;;4993520;28;20035;-92
2022/04/30 07:38:22;;;;;;;27.25;13.73;;;;;;;;;;4993656;28;20109;-92
2022/04/30 07:40:49;;;;;;;24.40;12.75;;;;;;;;;;4993587;28;20112;-92
2022/04/30 07:43:15;;;;;;;22.38;12.55;;;;;;;;;;4993561;28;20034;-92
2022/04/30 07:45:41;;;;;;;20.15;11.68;;;;;;;;;;4993394;28;20475;-92
2022/04/30 07:48:08;;;;;;;23.23;11.85;;;;;;;;;;4993463;28;20022;-91
2022/04/30 07:50:37;;;;;;;21.33;13.00;;;;;;;;;;4993387;28;20030;-92
2022/04/30 07:53:07;;;;;;;25.23;12.63;;;;;;;;;;4993407;28;20026;-92
2022/04/30 07:55:33;;;;;;;37.65;12.88;;;;;;;;;;4993401;28;20145;-92
2022/04/30 07:58:00;;;;;;;19.17;10.90;;;;;;;;;;4993959;28;20467;-92
2022/04/30 08:00:26;;;;;;;16.42;11.13;;;;;;;;;;4993468;28;20038;-91
2022/04/30 08:02:56;;;;;;;20.38;11.52;;;;;;;;;;4996769;28;20081;-92
2022/04/30 08:05:23;;;;;;;15.75;10.32;;;;;;;;;;4996741;28;20085;-92
2022/04/30 08:07:49;;;;;;;18.88;11.55;;;;;;;;;;4996661;28;20158;-92
2022/04/30 08:10:15;;;;;;;17.27;10.18;;;;;;;;;;4996556;28;20113;-93
2022/04/30 08:12:41;;;;;;;18.05;9.02;;;;;;;;;;4996780;28;20394;-94
2022/04/30 08:15:08;;;;;;;16.52;10.00;;;;;;;;;;4980331;28;20036;-92
2022/04/30 08:17:34;;;;;;;15.10;9.88;;;;;;;;;;4996457;28;20022;-93
2022/04/30 08:20:01;;;;;;;13.18;8.93;;;;;;;;;;4980357;28;20386;-92
2022/04/30 08:22:28;;;;;;;14.73;9.02;;;;;;;;;;4980185;28;20117;-93
2022/04/30 08:24:54;;;;;;;15.38;10.02;;;;;;;;;;4980343;28;20084;-93
2022/04/30 08:27:21;;;;;;;11.88;9.13;;;;;;;;;;4996586;28;20057;-93
2022/04/30 08:29:47;;;;;;;11.38;9.40;;;;;;;;;;4980106;28;20424;-93
2022/04/30 08:32:15;;;;;;;14.55;9.23;;;;;;;;;;4980066;28;20033;-93
2022/04/30 08:34:42;;;;;;;13.55;8.55;;;;;;;;;;4980255;28;20125;-93
2022/04/30 08:37:08;;;;;;;14.85;8.30;;;;;;;;;;4980109;28;20022;-93
2022/04/30 08:39:34;;;;;;;12.40;8.73;;;;;;;;;;4980005;28;20507;-93
2022/04/30 08:42:00;;;;;;;15.02;8.73;;;;;;;;;;4979896;28;20034;-93
2022/04/30 08:44:27;;;;;;;10.80;8.52;;;;;;;;;;4979813;28;20105;-93
2022/04/30 08:46:56;;;;;;;12.32;8.30;;;;;;;;;;4979757;28;20062;-95
2022/04/30 08:49:23;;;;;;;14.57;8.32;;;;;;;;;;4979815;28;20069;-94
2022/04/30 08:51:49;;;;;;;11.75;8.02;;;;;;;;;;4979604;28;20027;-93
2022/04/30 08:54:15;;;;;;;14.98;8.77;;;;;;;;;;4979891;28;20038;-93
2022/04/30 08:56:51;;;;;;;14.25;8.70;;;;;;;;;;4979738;28;20037;-93
2022/04/30 08:59:17;;;;;;;12.13;8.80;;;;;;;;;;4979784;28;20033;-93
2022/04/30 09:01:50;;;;;;;14.35;8.75;;;;;;;;;;4979493;28;20023;-93
2022/04/30 09:04:17;;;;;;;11.90;9.05;;;;;;;;;;4979486;28;20030;-92
2022/04/30 09:06:53;;;;;;;12.55;7.80;;;;;;;;;;4979305;28;20022;-92
2022/04/30 09:09:26;;;;;;;13.93;7.50;;;;;;;;;;4979350;28;20564;-92
2022/04/30 09:11:58;;;;;;;11.15;7.28;;;;;;;;;;4979071;28;20487;-92
2022/04/30 09:14:25;;;;;;;9.88;7.70;;;;;;;;;;4978769;28;20474;-92
2022/04/30 09:17:01;;;;;;;12.65;7.65;;;;;;;;;;4979260;28;20057;-93
2022/04/30 09:19:27;;;;;;;12.05;6.50;;;;;;;;;;4979380;28;20049;-92
2022/04/30 09:21:53;;;;;;;11.23;7.47;;;;;;;;;;4979151;28;20026;-92
2022/04/30 09:24:19;;;;;;;15.73;7.35;;;;;;;;;;4979194;28;20375;-92
2022/04/30 09:26:45;;;;;;;13.02;8.20;;;;;;;;;;4978978;28;20058;-93
2022/04/30 09:29:22;;;;;;;11.07;7.30;;;;;;;;;;4979250;28;20028;-93
2022/04/30 09:31:50;;;;;;;10.52;6.95;;;;;;;;;;4979265;28;20057;-92
2022/04/30 09:39:45;;;;;;;7.47;6.10;;;;;;;;;;4996367;28;20646;-92
2022/04/30 09:42:12;;;;;;;10.82;6.88;;;;;;;;;;4978748;28;20030;-92
2022/04/30 09:44:39;;;;;;;10.45;7.50;;;;;;;;;;4978636;28;20030;-92
2022/04/30 09:47:08;;;;;;;10.27;6.68;;;;;;;;;;4978703;28;20029;-93
2022/04/30 09:55:06;;;;;;;11.68;6.65;;;;;;;;;;4996365;28;20045;-92
2022/04/30 09:57:32;;;;;;;7.90;6.93;;;;;;;;;;4978434;28;20026;-93
2022/04/30 10:00:00;;;;;;;10.60;6.53;;;;;;;;;;4978637;28;20391;-92
2022/04/30 10:02:28;;;;;;;11.43;7.38;;;;;;;;;;4978480;28;20027;-92
2022/04/30 10:04:55;;;;;;;9.18;6.70;;;;;;;;;;4978451;28;20027;-92
2022/04/30 10:07:24;;;;;;;13.00;6.90;;;;;;;;;;4978475;28;20033;-92
2022/04/30 10:10:03;;;;;;;8.75;6.10;;;;;;;;;;4978076;28;20038;-92
2022/04/30 10:12:34;;;;;;;10.30;6.70;;;;;;;;;;4978543;28;20029;-93
2022/04/30 10:15:05;;;;;;;8.07;6.25;;;;;;;;;;4978436;28;20026;-92
2022/04/30 10:17:37;;;;;;;8.53;6.23;;;;;;;;;;4995575;28;20034;-92
2022/04/30 10:20:13;;;;;;;8.57;7.15;;;;;;;;;;4978105;28;20030;-92
2022/04/30 10:22:49;;;;;;;9.95;6.20;;;;;;;;;;4978099;28;20085;-93
2022/04/30 10:25:15;;;;;;;7.95;6.50;;;;;;;;;;4977814;28;20034;-92
2022/04/30 10:27:42;;;;;;;7.72;6.20;;;;;;;;;;4977967;28;20018;-93
2022/04/30 10:30:29;;;;;;;8.65;6.55;;;;;;;;;;4977814;28;20045;-92
2022/04/30 10:32:57;;;;;;;9.52;6.35;;;;;;;;;;4978006;28;20030;-93
2022/04/30 10:35:30;;;;;;;10.93;6.70;;;;;;;;;;4977796;28;20030;-93
2022/04/30 10:38:06;;;;;;;8.48;6.35;;;;;;;;;;4977897;28;20031;-92
2022/04/30 10:40:42;;;;;;;11.40;5.97;;;;;;;;;;4977965;28;20030;-93
2022/04/30 10:43:21;;;;;;;9.60;5.93;;;;;;;;;;4977663;28;20064;-93
2022/04/30 10:45:47;;;;;;;8.88;6.07;;;;;;;;;;4977693;28;20026;-92
2022/04/30 10:48:13;;;;;;;11.13;6.40;;;;;;;;;;4978191;28;20022;-93
2022/04/30 10:50:40;;;;;;;7.82;5.82;;;;;;;;;;4982180;28;20498;-91
2022/04/30 10:53:08;;;;;;;9.32;5.82;;;;;;;;;;4977591;28;20485;-91
2022/04/30 10:55:34;;;;;;;7.90;5.60;;;;;;;;;;4977744;28;20057;-91
2022/04/30 10:58:00;;;;;;;10.65;5.53;;;;;;;;;;4977500;28;20026;-92
2022/04/30 11:00:27;;;;;;;6.80;5.45;;;;;;;;;;4977571;28;20026;-92
2022/04/30 11:02:53;;;;;;;7.75;5.57;;;;;;;;;;4977557;28;20483;-92
2022/04/30 11:05:22;;;;;;;8.10;4.97;;;;;;;;;;4978178;28;20460;-91
2022/04/30 11:07:48;;;;;;;6.20;5.07;;;;;;;;;;4977516;28;20033;-91
2022/04/30 11:10:14;;;;;;;5.20;4.30;;;;;;;;;;4977232;28;20042;-92
2022/04/30 11:12:40;;;;;;;8.82;4.70;;;;;;;;;;4977573;28;20090;-92
2022/04/30 11:15:07;;;;;;;6.30;4.50;;;;;;;;;;4977457;28;20034;-91
2022/04/30 11:17:42;;;;;;;5.97;4.65;;;;;;;;;;4977633;28;20022;-91
2022/04/30 11:20:09;;;;;;;5.63;4.43;;;;;;;;;;4977526;28;20030;-91
2022/04/30 11:22:35;;;;;;;7.78;4.90;;;;;;;;;;4977614;28;20129;-91
2022/04/30 11:25:01;;;;;;;6.60;4.30;;;;;;;;;;4977271;28;20030;-92
2022/04/30 11:27:31;;;;;;;6.57;4.50;;;;;;;;;;4977272;28;20026;-92
2022/04/30 11:29:57;;;;;;;6.82;4.70;;;;;;;;;;4977232;28;20026;-91
2022/04/30 11:32:26;;;;;;;5.55;4.60;;;;;;;;;;4977420;28;20032;-92
2022/04/30 11:34:54;;;;;;;13.68;5.25;;;;;;;;;;4978139;28;20050;-93
2022/04/30 11:37:20;;;;;;;8.02;4.60;;;;;;;;;;4980160;28;20109;-93
2022/04/30 11:39:46;;;;;;;9.32;5.65;;;;;;;;;;4981572;28;20113;-93
2022/04/30 11:42:12;;;;;;;5.97;4.95;;;;;;;;;;4980806;28;20029;-93
2022/04/30 11:44:39;;;;;;;7.25;5.38;;;;;;;;;;4980889;28;20027;-93
2022/04/30 11:47:11;;;;;;;8.90;5.10;;;;;;;;;;4980690;28;20393;-94
2022/04/30 11:49:37;;;;;;;13.00;5.00;;;;;;;;;;4980751;28;20422;-93
2022/04/30 11:52:04;;;;;;;7.65;4.57;;;;;;;;;;4980610;28;20022;-93
2022/04/30 11:54:30;;;;;;;11.07;5.35;;;;;;;;;;4980559;28;20023;-93
2022/04/30 11:57:00;;;;;;;6.05;4.93;;;;;;;;;;4980745;28;20034;-93
2022/04/30 11:59:34;;;;;;;8.48;4.65;;;;;;;;;;4980613;28;20022;-92
2022/04/30 12:02:04;;;;;;;5.13;4.00;;;;;;;;;;4980698;28;20030;-93
2022/04/30 12:04:34;;;;;;;9.18;4.72;;;;;;;;;;4980530;28;20026;-93
2022/04/30 12:07:02;;;;;;;8.82;4.75;;;;;;;;;;4980382;28;20495;-93
2022/04/30 12:09:32;;;;;;;10.43;5.68;;;;;;;;;;4980254;28;20513;-92
2022/04/30 12:12:00;;;;;;;9.73;5.07;;;;;;;;;;4980603;28;20050;-94
2022/04/30 12:14:26;;;;;;;6.72;3.90;;;;;;;;;;4980271;28;20487;-94
2022/04/30 12:16:53;;;;;;;7.55;4.70;;;;;;;;;;4980388;28;20029;-94
2022/04/30 12:25:00;;;;;;;8.10;4.72;;;;;;;;;;4997652;28;20041;-94
2022/04/30 12:27:28;;;;;;;6.68;4.82;;;;;;;;;;4979977;28;20081;-94
2022/04/30 12:30:05;;;;;;;7.00;4.43;;;;;;;;;;4980076;28;20161;-94
2022/04/30 12:32:35;;;;;;;41.17;8.82;;;;;;;;;;4980095;28;20022;-94
2022/04/30 12:35:01;;;;;;;11.40;4.55;;;;;;;;;;4980043;28;20471;-93
2022/04/30 12:37:31;;;;;;;9.45;4.75;;;;;;;;;;4979904;28;20033;-94
2022/04/30 12:39:57;;;;;;;10.77;5.88;;;;;;;;;;4979875;28;20068;-94
2022/04/30 12:42:24;;;;;;;7.05;5.03;;;;;;;;;;4979935;28;20105;-93
2022/04/30 12:44:50;;;;;;;6.82;4.85;;;;;;;;;;4979839;28;20022;-94
2022/04/30 12:47:16;;;;;;;7.60;5.57;;;;;;;;;;4978731;28;20026;-93
2022/04/30 12:49:43;;;;;;;5.63;4.13;;;;;;;;;;4979452;28;20029;-92
2022/04/30 12:52:09;;;;;;;7.97;4.70;;;;;;;;;;4979784;28;20022;-94
2022/04/30 12:54:36;;;;;;;4.75;4.25;;;;;;;;;;4979609;28;20510;-94
2022/04/30 12:57:07;;;;;;;6.32;4.47;;;;;;;;;;4979670;28;20026;-93
2022/04/30 12:59:33;;;;;;;7.53;4.83;;;;;;;;;;4980417;28;20038;-93
2022/04/30 13:01:59;;;;;;;9.02;3.95;;;;;;;;;;4979875;28;20066;-93
2022/04/30 13:04:25;;;;;;;15.25;4.97;;;;;;;;;;4979541;28;20137;-94
2022/04/30 13:06:51;;;;;;;8.65;4.43;;;;;;;;;;4979201;28;20040;-94
2022/04/30 13:14:47;;;;;;;5.03;4.30;;;;;;;;;;4996875;28;20092;-93
2022/04/30 13:17:13;;;;;;;8.05;4.43;;;;;;;;;;4979237;28;20023;-94
2022/04/30 13:19:42;;;;;;;5.38;4.18;;;;;;;;;;4979070;28;20027;-94
2022/04/30 13:22:08;;;;;;;6.13;4.28;;;;;;;;;;4978997;28;20030;-94
2022/04/30 13:24:35;;;;;;;8.60;4.35;;;;;;;;;;4979149;28;20030;-94
2022/04/30 13:27:01;;;;;;;8.60;4.32;;;;;;;;;;4978977;28;20027;-94
2022/04/30 13:29:27;;;;;;;4.65;3.78;;;;;;;;;;4978926;28;20022;-94
2022/04/30 13:31:53;;;;;;;12.75;4.35;;;;;;;;;;4978822;28;20068;-94
2022/04/30 13:34:21;;;;;;;5.00;3.63;;;;;;;;;;4978707;28;20036;-94
2022/04/30 13:36:48;;;;;;;5.30;3.90;;;;;;;;;;4978856;28;20057;-94
2022/04/30 13:39:14;;;;;;;6.70;3.65;;;;;;;;;;4978745;28;20084;-93
2022/04/30 13:41:40;;;;;;;6.38;3.97;;;;;;;;;;4978790;28;20023;-94
2022/04/30 13:44:09;;;;;;;4.20;3.55;;;;;;;;;;4978669;28;20030;-94
2022/04/30 13:46:35;;;;;;;5.78;3.70;;;;;;;;;;4978671;28;20030;-94
2022/04/30 13:49:03;;;;;;;6.05;3.95;;;;;;;;;;4978539;28;20023;-94
2022/04/30 13:51:29;;;;;;;8.68;4.43;;;;;;;;;;4978540;28;20022;-94
2022/04/30 13:53:55;;;;;;;8.30;4.10;;;;;;;;;;4978443;28;20050;-94
2022/04/30 13:56:22;;;;;;;7.68;4.10;;;;;;;;;;4978553;28;20034;-94
2022/04/30 13:58:48;;;;;;;5.35;4.22;;;;;;;;;;4978577;28;20034;-94
2022/04/30 14:01:14;;;;;;;3.40;3.00;;;;;;;;;;4978412;28;20026;-94
2022/04/30 14:03:40;;;;;;;6.45;3.20;;;;;;;;;;4978595;28;20033;-93
2022/04/30 14:06:06;;;;;;;7.45;4.20;;;;;;;;;;4978133;28;20027;-94
2022/04/30 14:08:32;;;;;;;7.32;3.80;;;;;;;;;;4978229;28;20050;-94
2022/04/30 14:10:59;;;;;;;6.30;3.70;;;;;;;;;;4978328;28;20022;-94
2022/04/30 14:16:10;;;;;;;5.07;3.85;;;;;;;;;;4995814;28;20069;-94
2022/04/30 14:18:36;;;;;;;8.20;3.50;;;;;;;;;;4977971;28;20030;-94
2022/04/30 14:21:04;;;;;;;5.13;3.83;;;;;;;;;;4978317;28;20026;-94
2022/04/30 14:23:31;;;;;;;4.15;3.28;;;;;;;;;;4977963;28;20027;-94
2022/04/30 14:25:57;;;;;;;5.53;3.40;;;;;;;;;;4977857;28;20026;-94
2022/04/30 14:28:23;;;;;;;3.20;2.88;;;;;;;;;;4978030;28;20019;-94
2022/04/30 14:30:50;;;;;;;3.45;3.15;;;;;;;;;;4977953;28;20479;-93
2022/04/30 14:33:16;;;;;;;6.95;3.80;;;;;;;;;;4977918;28;20031;-94
2022/04/30 14:35:42;;;;;;;3.95;3.30;;;;;;;;;;4978068;28;20414;-95
2022/04/30 14:38:11;;;;;;;4.32;3.38;;;;;;;;;;4978592;28;20023;-94
2022/04/30 14:40:39;;;;;;;4.68;3.40;;;;;;;;;;4977885;28;20521;-94
2022/04/30 14:43:06;;;;;;;4.20;3.78;;;;;;;;;;4978007;28;20054;-94
2022/04/30 14:45:32;;;;;;;5.75;3.58;;;;;;;;;;4977651;28;20049;-94
2022/04/30 14:47:58;;;;;;;4.97;3.75;;;;;;;;;;4977827;28;20018;-94
2022/04/30 14:50:24;;;;;;;5.53;4.32;;;;;;;;;;4977852;28;20031;-94
2022/04/30 14:52:51;;;;;;;8.27;4.40;;;;;;;;;;4977721;28;20093;-94
2022/04/30 14:55:18;;;;;;;5.53;4.00;;;;;;;;;;4977377;28;20036;-94
2022/04/30 14:57:44;;;;;;;7.40;4.03;;;;;;;;;;4977851;28;20052;-94
2022/04/30 15:00:10;;;;;;;6.28;4.40;;;;;;;;;;4977561;28;20022;-94
2022/04/30 15:02:36;;;;;;;4.28;3.88;;;;;;;;;;4977737;28;20431;-94
2022/04/30 15:05:03;;;;;;;5.30;4.30;;;;;;;;;;4977420;28;20054;-94
2022/04/30 15:07:29;;;;;;;4.95;3.80;;;;;;;;;;4977624;28;20015;-94
2022/04/30 15:09:55;;;;;;;9.18;4.70;;;;;;;;;;4977651;28;20557;-94
2022/04/30 15:12:21;;;;;;;5.00;3.90;;;;;;;;;;4980693;28;20394;-93
2022/04/30 15:14:47;;;;;;;4.55;3.85;;;;;;;;;;4981410;28;20379;-94
2022/04/30 15:17:14;;;;;;;8.70;4.75;;;;;;;;;;4981441;28;20034;-95
2022/04/30 15:19:40;;;;;;;7.90;4.95;;;;;;;;;;4981375;28;20026;-94
2022/04/30 15:22:06;;;;;;;8.18;4.65;;;;;;;;;;4981146;28;20440;-94
2022/04/30 15:24:32;;;;;;;6.55;4.72;;;;;;;;;;4981273;28;20019;-94
2022/04/30 15:26:59;;;;;;;5.78;4.95;;;;;;;;;;4981130;28;20029;-94
2022/04/30 15:29:28;;;;;;;5.30;4.68;;;;;;;;;;4981282;28;20030;-94